Time;durP1;ratioP1;P1;durP2;ratioP2;P2;SDS_P1;SDS_P2;PMS_P1;PMS_P2;Temp;Humidity;BMP_temperature;BMP_pressure;BME280_temperature;BME280_humidity;BME280_pressure;Samples;Min_cycle;Max_cycle;Signal;HPM_P1;HPM_P2
2021/09/11 00:00:41;;;;;;;10.38;1.80;;;17.30;99.90;;;;;;2097353;28;20037;-70
2021/09/11 00:01:42;;;;;;;12.38;1.98;;;17.30;99.90;;;;;;2099684;28;20132;-71
2021/09/11 00:02:44;;;;;;;12.18;2.22;;;17.30;99.90;;;;;;2095622;28;20027;-72
2021/09/11 00:03:45;;;;;;;12.48;2.00;;;17.30;99.90;;;;;;2104249;28;20099;-71
2021/09/11 00:04:47;;;;;;;14.82;2.10;;;17.30;99.90;;;;;;2103133;28;20019;-71
2021/09/11 00:05:48;;;;;;;11.43;1.95;;;17.30;99.90;;;;;;2104398;28;20024;-71
2021/09/11 00:06:49;;;;;;;10.52;2.22;;;17.30;99.90;;;;;;2101668;28;20035;-73
2021/09/11 00:07:50;;;;;;;9.05;1.65;;;17.30;99.90;;;;;;2096321;28;20028;-73
2021/09/11 00:08:51;;;;;;;9.68;1.52;;;17.20;99.90;;;;;;2100608;28;20050;-73
2021/09/11 00:09:52;;;;;;;8.30;2.00;;;17.20;99.90;;;;;;2096453;28;20028;-73
2021/09/11 00:10:52;;;;;;;9.05;1.70;;;17.20;99.90;;;;;;2104574;28;20008;-72
2021/09/11 00:11:53;;;;;;;10.13;1.88;;;17.20;99.90;;;;;;2104788;28;20095;-73
2021/09/11 00:12:54;;;;;;;10.68;1.92;;;17.20;99.90;;;;;;2095695;28;20159;-72
2021/09/11 00:13:54;;;;;;;11.82;2.20;;;17.20;99.90;;;;;;2098205;28;20021;-75
2021/09/11 00:14:55;;;;;;;8.55;1.67;;;17.20;99.90;;;;;;2096922;28;20017;-72
2021/09/11 00:15:56;;;;;;;9.95;1.48;;;17.10;99.90;;;;;;2099978;28;20020;-75
2021/09/11 00:16:56;;;;;;;14.27;2.05;;;17.10;99.90;;;;;;2099182;28;20012;-71
2021/09/11 00:18:02;;;;;;;11.20;1.58;;;17.10;99.90;;;;;;2097895;28;20025;-73
2021/09/11 00:19:03;;;;;;;11.13;1.70;;;17.10;99.90;;;;;;2090942;28;20049;-73
2021/09/11 00:20:05;;;;;;;13.68;2.28;;;17.10;99.90;;;;;;2088542;28;20028;-73
2021/09/11 00:21:06;;;;;;;11.25;1.90;;;17.10;99.90;;;;;;2098124;28;20024;-73
2021/09/11 00:22:06;;;;;;;13.55;2.20;;;17.10;99.90;;;;;;2097057;28;20107;-74
2021/09/11 00:23:12;;;;;;;14.98;1.90;;;17.10;99.90;;;;;;2098483;28;21576;-74
2021/09/11 00:24:13;;;;;;;20.33;2.75;;;17.10;99.90;;;;;;2090806;28;20132;-73
2021/09/11 00:25:14;;;;;;;10.85;1.80;;;17.10;99.90;;;;;;2094427;28;20014;-74
2021/09/11 00:26:14;;;;;;;8.70;1.63;;;17.10;99.90;;;;;;2091774;28;20112;-74
2021/09/11 00:27:15;;;;;;;16.35;2.08;;;17.10;99.90;;;;;;2098777;28;20016;-73
2021/09/11 00:28:16;;;;;;;17.52;2.35;;;17.10;99.90;;;;;;2097475;28;20404;-74
2021/09/11 00:29:17;;;;;;;11.65;2.50;;;17.10;99.90;;;;;;2096262;28;20025;-73
2021/09/11 00:30:17;;;;;;;10.63;1.95;;;17.10;99.90;;;;;;2089331;28;20036;-73
2021/09/11 00:31:18;;;;;;;11.30;2.22;;;17.10;99.90;;;;;;2090290;28;20109;-72
2021/09/11 00:32:19;;;;;;;10.05;2.28;;;17.10;99.90;;;;;;2097934;28;20149;-72
2021/09/11 00:33:19;;;;;;;11.52;1.95;;;17.10;99.90;;;;;;2095796;28;20029;-71
2021/09/11 00:34:20;;;;;;;12.50;2.17;;;17.10;99.90;;;;;;2096468;28;20553;-73
2021/09/11 00:35:21;;;;;;;14.48;1.92;;;17.10;99.90;;;;;;2096521;28;20032;-73
2021/09/11 00:36:22;;;;;;;14.57;2.08;;;17.10;99.90;;;;;;2096699;28;20024;-72
2021/09/11 00:37:22;;;;;;;15.18;3.05;;;17.10;99.90;;;;;;2096456;28;20024;-74
2021/09/11 00:38:23;;;;;;;17.73;2.47;;;17.00;99.90;;;;;;2094916;28;20024;-73
2021/09/11 00:39:24;;;;;;;12.20;1.80;;;17.10;99.90;;;;;;2089391;28;20056;-73
2021/09/11 00:40:25;;;;;;;19.95;2.88;;;17.00;99.90;;;;;;2098031;28;20029;-74
2021/09/11 00:41:26;;;;;;;15.45;2.05;;;17.00;99.90;;;;;;2089919;28;20528;-74
2021/09/11 00:42:27;;;;;;;7.93;2.00;;;17.00;99.90;;;;;;2098442;28;20091;-73
2021/09/11 00:43:28;;;;;;;9.55;2.38;;;17.00;99.90;;;;;;2099022;28;20023;-73
2021/09/11 00:44:30;;;;;;;12.55;2.28;;;17.00;99.90;;;;;;2098879;28;20515;-72
2021/09/11 00:45:30;;;;;;;14.63;2.33;;;17.00;99.90;;;;;;2096094;28;20039;-71
2021/09/11 00:46:31;;;;;;;25.08;2.55;;;17.00;99.90;;;;;;2089775;28;20055;-72
2021/09/11 00:47:32;;;;;;;15.57;1.95;;;17.00;99.90;;;;;;2088232;28;20111;-72
2021/09/11 00:48:33;;;;;;;14.70;2.03;;;16.90;99.90;;;;;;2086906;28;20031;-72
2021/09/11 00:49:33;;;;;;;14.50;2.60;;;16.90;99.90;;;;;;2084983;28;20074;-72
2021/09/11 00:50:34;;;;;;;12.82;2.25;;;16.90;99.90;;;;;;2093768;28;20100;-71
2021/09/11 00:51:36;;;;;;;13.07;2.28;;;16.90;99.90;;;;;;2106280;28;20395;-73
2021/09/11 00:52:38;;;;;;;16.77;2.80;;;16.80;99.90;;;;;;2106184;28;20099;-73
2021/09/11 00:53:40;;;;;;;13.05;2.35;;;16.80;99.90;;;;;;2099002;28;20041;-71
2021/09/11 00:54:41;;;;;;;15.88;2.55;;;16.80;99.90;;;;;;2099076;28;20020;-73
2021/09/11 00:55:43;;;;;;;11.50;2.65;;;16.80;99.90;;;;;;2098560;28;20145;-72
2021/09/11 00:56:44;;;;;;;16.02;2.40;;;16.80;99.90;;;;;;2095419;28;20056;-72
2021/09/11 00:57:49;;;;;;;13.23;2.25;;;16.80;99.90;;;;;;2098268;28;20462;-73
2021/09/11 00:58:49;;;;;;;19.85;2.90;;;16.80;99.90;;;;;;2098679;28;20021;-73
2021/09/11 00:59:50;;;;;;;13.32;2.00;;;16.80;99.90;;;;;;2098266;28;20024;-73
2021/09/11 01:00:51;;;;;;;16.10;2.10;;;16.80;99.90;;;;;;2098450;28;20134;-72
2021/09/11 01:01:51;;;;;;;20.95;3.00;;;16.80;99.90;;;;;;2096996;28;20032;-72
2021/09/11 01:02:52;;;;;;;12.93;2.55;;;16.70;99.90;;;;;;2097222;28;20111;-71
2021/09/11 01:03:53;;;;;;;11.25;2.22;;;16.80;99.90;;;;;;2098158;28;20030;-73
2021/09/11 01:04:54;;;;;;;15.43;2.45;;;16.80;99.90;;;;;;2100571;28;20016;-72
2021/09/11 01:05:54;;;;;;;15.48;2.33;;;16.80;99.90;;;;;;2098988;28;20410;-73
2021/09/11 01:06:57;;;;;;;22.40;2.72;;;16.80;99.90;;;;;;2098616;28;20440;-73
2021/09/11 01:07:58;;;;;;;9.32;2.08;;;16.80;99.90;;;;;;2092299;28;20396;-72
2021/09/11 01:08:59;;;;;;;17.27;2.28;;;16.80;99.90;;;;;;2094928;28;20025;-73
2021/09/11 01:10:01;;;;;;;16.20;2.70;;;16.80;99.90;;;;;;2098480;28;20017;-73
2021/09/11 01:11:01;;;;;;;10.35;1.73;;;16.80;99.90;;;;;;2096694;28;20020;-73
2021/09/11 01:12:02;;;;;;;20.52;3.17;;;16.80;99.90;;;;;;2098229;28;20027;-73
2021/09/11 01:13:03;;;;;;;15.63;2.53;;;16.80;99.90;;;;;;2098556;28;20732;-73
2021/09/11 01:14:04;;;;;;;18.38;2.65;;;16.80;99.90;;;;;;2095733;28;20067;-71
2021/09/11 01:15:07;;;;;;;18.80;2.83;;;16.80;99.90;;;;;;2096191;28;20664;-71
2021/09/11 01:16:08;;;;;;;12.15;2.05;;;16.80;99.90;;;;;;2098604;28;20035;-71
2021/09/11 01:17:16;;;;;;;15.35;2.50;;;16.80;99.90;;;;;;2097116;28;20408;-71
2021/09/11 01:18:17;;;;;;;14.88;2.72;;;16.80;99.90;;;;;;2097596;28;20059;-71
2021/09/11 01:19:17;;;;;;;13.45;2.50;;;16.80;99.90;;;;;;2089442;28;20490;-72
2021/09/11 01:20:18;;;;;;;11.95;2.08;;;16.80;99.90;;;;;;2089152;28;20488;-72
2021/09/11 01:21:19;;;;;;;13.63;2.50;;;16.80;99.90;;;;;;2097581;28;20121;-73
2021/09/11 01:22:19;;;;;;;11.32;2.30;;;16.80;99.90;;;;;;2091135;28;20032;-72
2021/09/11 01:23:21;;;;;;;16.55;2.33;;;16.70;99.90;;;;;;2095806;28;20027;-71
2021/09/11 01:24:21;;;;;;;12.32;2.35;;;16.70;99.90;;;;;;2098230;28;20017;-72
2021/09/11 01:25:23;;;;;;;14.23;2.63;;;16.70;99.90;;;;;;2097985;28;20045;-72
2021/09/11 01:26:24;;;;;;;15.30;3.22;;;16.70;99.90;;;;;;2098813;28;20583;-72
2021/09/11 01:27:25;;;;;;;12.90;2.05;;;16.70;99.90;;;;;;2094007;28;20040;-71
2021/09/11 01:28:29;;;;;;;12.70;2.22;;;16.60;99.90;;;;;;2092117;28;20021;-72
2021/09/11 01:29:30;;;;;;;12.52;2.10;;;16.60;99.90;;;;;;2095494;28;20029;-72
2021/09/11 01:30:31;;;;;;;14.65;2.55;;;16.60;99.90;;;;;;2098070;28;20025;-73
2021/09/11 01:31:36;;;;;;;15.43;2.00;;;16.60;99.90;;;;;;2093971;28;20108;-72
2021/09/11 01:32:37;;;;;;;9.57;1.65;;;16.60;99.90;;;;;;2097773;28;20108;-72
2021/09/11 01:33:37;;;;;;;15.43;2.20;;;16.60;99.90;;;;;;2097920;28;20074;-73
2021/09/11 01:34:38;;;;;;;17.25;2.50;;;16.70;99.90;;;;;;2097907;28;20029;-72
2021/09/11 01:35:39;;;;;;;14.27;2.15;;;16.70;99.90;;;;;;2088837;28;20730;-71
2021/09/11 01:36:40;;;;;;;19.08;2.40;;;16.70;99.90;;;;;;2097945;28;20688;-71
2021/09/11 01:37:41;;;;;;;10.85;2.22;;;16.70;99.90;;;;;;2103095;28;20101;-71
2021/09/11 01:38:41;;;;;;;17.33;2.30;;;16.70;99.90;;;;;;2100797;28;20066;-73
2021/09/11 01:39:46;;;;;;;8.00;2.08;;;16.70;99.90;;;;;;2096032;28;20052;-73
2021/09/11 01:40:47;;;;;;;11.52;1.80;;;16.70;99.90;;;;;;2097710;28;20498;-72
2021/09/11 01:41:48;;;;;;;12.73;2.40;;;16.70;99.90;;;;;;2098458;28;20024;-72
2021/09/11 01:42:49;;;;;;;14.68;2.40;;;16.70;99.90;;;;;;2098172;28;20025;-72
2021/09/11 01:43:50;;;;;;;9.90;2.22;;;16.80;99.90;;;;;;2098211;28;20024;-71
2021/09/11 01:44:59;;;;;;;14.32;3.05;;;16.80;99.90;;;;;;2098525;28;20017;-71
2021/09/11 01:46:00;;;;;;;11.50;2.05;;;16.80;99.90;;;;;;2098147;28;20020;-72
2021/09/11 01:47:00;;;;;;;11.02;2.22;;;16.80;99.90;;;;;;2096178;28;20475;-72
2021/09/11 01:48:01;;;;;;;14.20;2.40;;;16.80;99.90;;;;;;2091768;28;20092;-73
2021/09/11 01:49:01;;;;;;;13.50;2.38;;;16.80;99.90;;;;;;2092898;28;20020;-73
2021/09/11 01:50:03;;;;;;;15.68;2.25;;;16.80;99.90;;;;;;2098264;28;20103;-72
2021/09/11 01:51:04;;;;;;;11.25;2.05;;;16.70;99.90;;;;;;2096943;28;20105;-72
2021/09/11 01:52:05;;;;;;;13.27;2.40;;;16.70;99.90;;;;;;2096918;28;20024;-73
2021/09/11 01:53:05;;;;;;;17.05;2.45;;;16.70;99.90;;;;;;2097200;28;20024;-73
2021/09/11 01:54:06;;;;;;;11.85;2.13;;;16.70;99.90;;;;;;2098636;28;20466;-71
2021/09/11 01:55:09;;;;;;;19.40;2.60;;;16.70;99.90;;;;;;2096584;28;20050;-72
2021/09/11 01:56:10;;;;;;;12.52;1.75;;;16.70;99.90;;;;;;2103202;28;20016;-72
2021/09/11 01:57:12;;;;;;;11.82;2.00;;;16.70;99.90;;;;;;2105943;28;20525;-72
2021/09/11 01:58:13;;;;;;;19.08;2.35;;;16.60;99.90;;;;;;2097753;28;20028;-73
2021/09/11 01:59:13;;;;;;;17.17;2.70;;;16.60;99.90;;;;;;2097384;28;20024;-72
2021/09/11 02:00:17;;;;;;;22.33;2.97;;;16.50;99.90;;;;;;2089264;28;20111;-72
2021/09/11 02:01:17;;;;;;;14.77;2.03;;;16.50;99.90;;;;;;2096497;28;20646;-71
2021/09/11 02:02:18;;;;;;;11.30;2.15;;;16.50;99.90;;;;;;2097647;28;20025;-71
2021/09/11 02:03:19;;;;;;;19.10;2.53;;;16.50;99.90;;;;;;2098429;28;20024;-71
2021/09/11 02:04:19;;;;;;;9.43;1.90;;;16.50;99.90;;;;;;2098186;28;20012;-71
2021/09/11 02:05:20;;;;;;;13.23;2.67;;;16.50;99.90;;;;;;2097971;28;20027;-72
2021/09/11 02:06:22;;;;;;;14.05;3.15;;;16.40;99.90;;;;;;2097717;28;20020;-71
2021/09/11 02:07:23;;;;;;;12.18;2.30;;;16.40;99.90;;;;;;2097778;28;20052;-71
2021/09/11 02:08:24;;;;;;;15.73;2.30;;;16.40;99.90;;;;;;2090349;28;20029;-72
2021/09/11 02:09:25;;;;;;;15.65;2.15;;;16.40;99.90;;;;;;2093997;28;20036;-73
2021/09/11 02:10:26;;;;;;;15.68;2.60;;;16.50;99.90;;;;;;2091665;28;20029;-71
2021/09/11 02:11:26;;;;;;;14.18;1.95;;;16.50;99.90;;;;;;2097354;28;20067;-72
2021/09/11 02:12:27;;;;;;;14.02;1.90;;;16.50;99.90;;;;;;2098102;28;20016;-73
2021/09/11 02:13:28;;;;;;;12.00;2.17;;;16.50;99.90;;;;;;2097997;28;20496;-72
2021/09/11 02:14:28;;;;;;;15.68;2.10;;;16.50;99.90;;;;;;2093712;28;20051;-71
2021/09/11 02:15:29;;;;;;;13.18;2.05;;;16.50;99.90;;;;;;2092764;28;20036;-73
2021/09/11 02:16:30;;;;;;;11.55;1.70;;;16.50;99.90;;;;;;2093948;28;20471;-73
2021/09/11 02:17:30;;;;;;;18.38;2.22;;;16.50;99.90;;;;;;2083038;28;20033;-72
2021/09/11 02:18:31;;;;;;;13.88;2.20;;;16.50;99.90;;;;;;2097247;28;20437;-73
2021/09/11 02:19:33;;;;;;;15.02;2.35;;;16.50;99.90;;;;;;2093588;28;20033;-73
2021/09/11 02:20:33;;;;;;;12.18;1.85;;;16.50;99.90;;;;;;2097271;28;20107;-71
2021/09/11 02:21:34;;;;;;;7.63;1.60;;;16.50;99.90;;;;;;2094243;28;20036;-71
2021/09/11 02:22:35;;;;;;;8.40;1.65;;;16.50;99.90;;;;;;2097754;28;20020;-73
2021/09/11 02:23:36;;;;;;;12.73;2.42;;;16.40;99.90;;;;;;2096973;28;20056;-73
2021/09/11 02:24:41;;;;;;;7.43;2.13;;;16.40;99.90;;;;;;2097052;28;20024;-72
2021/09/11 02:25:41;;;;;;;9.57;1.95;;;16.30;99.90;;;;;;2096606;28;20017;-72
2021/09/11 02:26:42;;;;;;;13.85;1.73;;;16.30;99.90;;;;;;2097154;28;20158;-71
2021/09/11 02:27:43;;;;;;;10.60;1.88;;;16.30;99.90;;;;;;2094452;28;20100;-72
2021/09/11 02:28:44;;;;;;;13.57;2.50;;;16.30;99.90;;;;;;2094107;28;20020;-72
2021/09/11 02:29:44;;;;;;;11.82;2.55;;;16.20;99.90;;;;;;2097591;28;20052;-71
2021/09/11 02:30:45;;;;;;;16.17;1.92;;;16.20;99.90;;;;;;2096902;28;20021;-73
2021/09/11 02:31:46;;;;;;;12.93;2.35;;;16.20;99.90;;;;;;2096120;28;20024;-72
2021/09/11 02:32:46;;;;;;;14.32;2.20;;;16.20;99.90;;;;;;2097358;28;20404;-71
2021/09/11 02:33:47;;;;;;;10.20;2.15;;;16.10;99.90;;;;;;2094746;28;20055;-72
2021/09/11 02:34:48;;;;;;;10.43;1.75;;;16.00;99.90;;;;;;2093588;28;20028;-71
2021/09/11 02:35:49;;;;;;;9.38;1.80;;;16.00;99.90;;;;;;2095065;28;20032;-71
2021/09/11 02:36:49;;;;;;;8.82;1.75;;;16.00;99.90;;;;;;2090112;28;20531;-71
2021/09/11 02:37:51;;;;;;;11.55;2.00;;;16.00;99.90;;;;;;2097834;28;20490;-73
2021/09/11 02:38:52;;;;;;;;;;;15.90;99.90;;;;;;2095827;28;20023;-72
2021/09/11 02:39:53;;;;;;;7.38;1.63;;;16.00;99.90;;;;;;2096464;28;19947;-73
2021/09/11 02:40:53;;;;;;;12.35;2.42;;;16.00;99.90;;;;;;2096401;28;20043;-73
2021/09/11 02:41:54;;;;;;;7.50;1.63;;;16.00;99.90;;;;;;2093492;28;20091;-73
2021/09/11 02:42:55;;;;;;;12.05;2.08;;;15.90;99.90;;;;;;2093771;28;20035;-72
2021/09/11 02:43:55;;;;;;;15.25;2.40;;;16.00;99.90;;;;;;2092890;28;20553;-71
2021/09/11 02:44:56;;;;;;;12.98;2.42;;;15.90;99.90;;;;;;2097372;28;20410;-72
2021/09/11 02:45:57;;;;;;;19.23;2.45;;;15.90;99.90;;;;;;2097352;28;20013;-72
2021/09/11 02:46:58;;;;;;;7.78;1.70;;;15.90;99.90;;;;;;2097030;28;20029;-72
2021/09/11 02:47:58;;;;;;;8.10;2.03;;;15.90;99.90;;;;;;2097588;28;20020;-73
2021/09/11 02:49:00;;;;;;;7.05;1.67;;;15.90;99.90;;;;;;2097266;28;20028;-73
2021/09/11 02:50:00;;;;;;;11.50;2.42;;;15.90;99.90;;;;;;2095653;28;20564;-73
2021/09/11 02:51:01;;;;;;;11.02;2.28;;;15.90;99.90;;;;;;2096705;28;20029;-71
2021/09/11 02:52:02;;;;;;;11.48;2.08;;;15.90;99.90;;;;;;2084834;28;20024;-71
2021/09/11 02:53:03;;;;;;;11.48;2.35;;;15.80;99.90;;;;;;2089159;28;20045;-72
2021/09/11 02:54:04;;;;;;;5.18;1.98;;;15.80;99.90;;;;;;2100086;28;20045;-73
2021/09/11 02:55:05;;;;;;;12.60;2.78;;;15.80;99.90;;;;;;2095869;28;20016;-73
2021/09/11 02:56:06;;;;;;;8.30;1.92;;;15.80;99.90;;;;;;2097278;28;20059;-71
2021/09/11 02:57:06;;;;;;;9.45;1.75;;;15.70;99.90;;;;;;2098234;28;20039;-71
2021/09/11 02:58:07;;;;;;;12.55;2.13;;;15.70;99.90;;;;;;2098090;28;20017;-72
2021/09/11 02:59:07;;;;;;;10.10;2.00;;;15.70;99.90;;;;;;2093994;28;20089;-73
2021/09/11 03:00:09;;;;;;;9.63;2.15;;;15.70;99.90;;;;;;2098104;28;20017;-72
2021/09/11 03:01:09;;;;;;;10.27;1.70;;;15.70;99.90;;;;;;2096855;28;20427;-73
2021/09/11 03:02:10;;;;;;;11.00;2.20;;;15.70;99.90;;;;;;2097757;28;20029;-74
2021/09/11 03:03:11;;;;;;;11.63;1.90;;;15.70;99.90;;;;;;2097611;28;20020;-73
2021/09/11 03:04:11;;;;;;;11.75;2.17;;;15.70;99.90;;;;;;2094407;28;20021;-73
2021/09/11 03:05:12;;;;;;;16.88;2.40;;;15.80;99.90;;;;;;2096601;28;20507;-72
2021/09/11 03:06:13;;;;;;;10.43;1.90;;;15.80;99.90;;;;;;2093316;28;20025;-71
2021/09/11 03:07:13;;;;;;;13.98;2.00;;;15.70;99.90;;;;;;2089506;28;20021;-72
2021/09/11 03:08:14;;;;;;;14.50;1.92;;;15.70;99.90;;;;;;2096265;28;20031;-73
2021/09/11 03:09:15;;;;;;;11.48;2.30;;;15.70;99.90;;;;;;2096609;28;20737;-71
2021/09/11 03:10:15;;;;;;;14.55;2.67;;;15.70;99.90;;;;;;2096475;28;20083;-71
2021/09/11 03:11:16;;;;;;;13.25;2.13;;;15.60;99.90;;;;;;2093589;28;20095;-70
2021/09/11 03:12:17;;;;;;;13.82;1.90;;;15.70;99.90;;;;;;2097538;28;20019;-71
2021/09/11 03:13:18;;;;;;;8.75;1.80;;;15.70;99.90;;;;;;2097598;28;20475;-74
2021/09/11 03:14:19;;;;;;;12.82;2.42;;;15.70;99.90;;;;;;2097135;28;20031;-71
2021/09/11 03:15:20;;;;;;;6.68;1.52;;;15.60;99.90;;;;;;2098008;28;20028;-71
2021/09/11 03:16:21;;;;;;;10.90;1.70;;;15.60;99.90;;;;;;2093494;28;20048;-71
2021/09/11 03:17:21;;;;;;;7.05;1.80;;;15.60;99.90;;;;;;2090570;28;20104;-71
2021/09/11 03:18:22;;;;;;;10.00;1.85;;;15.60;99.90;;;;;;2091029;28;20017;-72
2021/09/11 03:19:23;;;;;;;9.52;1.98;;;15.50;99.90;;;;;;2094439;28;20029;-72
2021/09/11 03:20:23;;;;;;;11.43;1.95;;;15.50;99.90;;;;;;2089535;28;20472;-75
2021/09/11 03:21:24;;;;;;;8.43;1.73;;;15.60;99.90;;;;;;2094197;28;20067;-71
2021/09/11 03:22:25;;;;;;;10.65;1.92;;;15.60;99.90;;;;;;2097675;28;20016;-72
2021/09/11 03:23:25;;;;;;;6.63;1.40;;;15.70;99.90;;;;;;2094583;28;20032;-72
2021/09/11 03:24:26;;;;;;;9.70;1.65;;;15.60;99.90;;;;;;2096977;28;20622;-72
2021/09/11 03:25:27;;;;;;;15.13;2.00;;;15.60;99.90;;;;;;2087613;28;20534;-73
2021/09/11 03:26:28;;;;;;;13.95;1.83;;;15.60;99.90;;;;;;2088892;28;20541;-74
2021/09/11 03:27:28;;;;;;;10.48;2.17;;;15.60;99.90;;;;;;2097038;28;20232;-73
2021/09/11 03:28:29;;;;;;;9.45;2.25;;;15.60;99.90;;;;;;2096985;28;20538;-73
2021/09/11 03:29:30;;;;;;;14.05;1.98;;;15.60;99.90;;;;;;2096411;28;20020;-72
2021/09/11 03:30:30;;;;;;;10.35;2.10;;;15.60;99.90;;;;;;2098305;28;20016;-73
2021/09/11 03:31:32;;;;;;;9.32;1.58;;;15.60;99.90;;;;;;2097883;28;20028;-71
2021/09/11 03:32:33;;;;;;;14.15;2.15;;;15.60;99.90;;;;;;2085930;28;20086;-70
2021/09/11 03:33:34;;;;;;;11.30;2.13;;;15.60;99.90;;;;;;2081850;28;20032;-71
2021/09/11 03:34:34;;;;;;;10.50;1.80;;;15.70;99.90;;;;;;2088828;28;20290;-71
2021/09/11 03:35:35;;;;;;;12.07;2.15;;;15.70;99.90;;;;;;2089553;28;20100;-70
2021/09/11 03:36:36;;;;;;;13.02;1.67;;;15.60;99.90;;;;;;2089573;28;20028;-71
2021/09/11 03:37:36;;;;;;;7.88;1.80;;;15.60;99.90;;;;;;2088696;28;20029;-72
2021/09/11 03:38:37;;;;;;;13.20;2.22;;;15.60;99.90;;;;;;2081472;28;20033;-75
2021/09/11 03:39:38;;;;;;;16.20;2.35;;;15.50;99.90;;;;;;2097083;28;20050;-72
2021/09/11 03:40:38;;;;;;;9.40;1.85;;;15.50;99.90;;;;;;2093953;28;20047;-73
2021/09/11 03:41:39;;;;;;;8.23;1.80;;;15.50;99.90;;;;;;2095964;28;20028;-71
2021/09/11 03:42:40;;;;;;;11.93;2.17;;;15.50;99.90;;;;;;2095057;28;20028;-71
2021/09/11 03:43:40;;;;;;;9.27;1.90;;;15.50;99.90;;;;;;2088916;28;20021;-72
2021/09/11 03:44:41;;;;;;;12.05;1.83;;;15.50;99.90;;;;;;2089359;28;20051;-72
2021/09/11 03:45:42;;;;;;;7.75;1.52;;;15.50;99.90;;;;;;2092385;28;20491;-72
2021/09/11 03:46:42;;;;;;;9.45;1.90;;;15.50;99.90;;;;;;2092417;28;20075;-71
2021/09/11 03:47:43;;;;;;;12.68;2.40;;;15.50;99.90;;;;;;2090103;28;20041;-72
2021/09/11 03:48:44;;;;;;;14.10;1.85;;;15.50;99.90;;;;;;2091029;28;20057;-72
2021/09/11 03:49:44;;;;;;;10.20;2.40;;;15.50;99.90;;;;;;2098186;28;20027;-72
2021/09/11 03:50:45;;;;;;;8.35;1.60;;;15.50;99.90;;;;;;2089735;28;20078;-72
2021/09/11 03:51:46;;;;;;;11.48;2.50;;;15.50;99.90;;;;;;2090436;28;20082;-72
2021/09/11 03:52:46;;;;;;;9.68;1.95;;;15.50;99.90;;;;;;2095900;28;20024;-72
2021/09/11 03:53:47;;;;;;;11.23;1.58;;;15.50;99.90;;;;;;2098197;28;20075;-71
2021/09/11 03:54:48;;;;;;;6.40;1.50;;;15.50;99.90;;;;;;2098543;28;20078;-71
2021/09/11 03:55:48;;;;;;;10.40;1.77;;;15.50;99.90;;;;;;2098270;28;20031;-72
2021/09/11 03:56:49;;;;;;;13.32;1.98;;;15.50;99.90;;;;;;2097161;28;20032;-71
2021/09/11 03:57:50;;;;;;;8.57;1.73;;;15.60;99.90;;;;;;2097792;28;20020;-71
2021/09/11 03:58:50;;;;;;;8.52;2.00;;;15.60;99.90;;;;;;2090242;28;20036;-72
2021/09/11 03:59:51;;;;;;;9.70;1.73;;;15.60;99.90;;;;;;2098502;28;20024;-73
2021/09/11 04:00:52;;;;;;;6.57;1.85;;;15.60;99.90;;;;;;2098095;28;20024;-72
2021/09/11 04:01:52;;;;;;;9.15;1.63;;;15.60;99.90;;;;;;2093162;28;20589;-71
2021/09/11 04:02:53;;;;;;;10.75;2.03;;;15.60;99.90;;;;;;2096631;28;20098;-72
2021/09/11 04:03:54;;;;;;;13.35;1.63;;;15.70;99.90;;;;;;2098583;28;20395;-72
2021/09/11 04:04:54;;;;;;;8.95;2.08;;;15.70;99.90;;;;;;2098028;28;20661;-72
2021/09/11 04:05:55;;;;;;;14.90;1.80;;;15.60;99.90;;;;;;2096328;28;20574;-72
2021/09/11 04:06:56;;;;;;;10.30;1.80;;;15.50;99.90;;;;;;2091048;28;20600;-71
2021/09/11 04:07:56;;;;;;;14.02;1.85;;;15.50;99.90;;;;;;2097953;28;20021;-71
2021/09/11 04:08:57;;;;;;;12.27;1.52;;;15.50;99.90;;;;;;2099193;28;20044;-71
2021/09/11 04:09:58;;;;;;;10.48;2.20;;;15.50;99.90;;;;;;2094789;28;20020;-70
2021/09/11 04:10:59;;;;;;;7.53;1.63;;;15.50;99.90;;;;;;2091431;28;20025;-72
2021/09/11 04:12:00;;;;;;;9.70;1.92;;;15.50;99.90;;;;;;2096223;28;20062;-71
2021/09/11 04:13:00;;;;;;;10.43;1.98;;;15.50;99.90;;;;;;2090605;28;20024;-71
2021/09/11 04:14:01;;;;;;;6.80;1.60;;;15.50;99.90;;;;;;2090900;28;20047;-70
2021/09/11 04:15:02;;;;;;;12.57;2.10;;;15.60;99.90;;;;;;2097414;28;20099;-71
2021/09/11 04:16:03;;;;;;;7.32;2.00;;;15.60;99.90;;;;;;2098208;28;20534;-71
2021/09/11 04:17:04;;;;;;;9.25;1.65;;;15.60;99.90;;;;;;2090292;28;20074;-72
2021/09/11 04:18:05;;;;;;;11.95;2.50;;;15.60;99.90;;;;;;2096045;28;20158;-72
2021/09/11 04:19:05;;;;;;;12.10;1.80;;;15.70;99.90;;;;;;2094940;28;20454;-74
2021/09/11 04:20:07;;;;;;;5.63;1.48;;;15.70;99.90;;;;;;2095461;28;20080;-72
2021/09/11 04:21:08;;;;;;;13.10;1.92;;;15.70;99.90;;;;;;2091811;28;20044;-71
2021/09/11 04:22:09;;;;;;;11.82;1.90;;;15.70;99.90;;;;;;2095052;28;20033;-71
2021/09/11 04:23:10;;;;;;;11.93;1.70;;;15.80;99.90;;;;;;2095126;28;20021;-70
2021/09/11 04:24:10;;;;;;;8.65;1.92;;;15.80;99.90;;;;;;2099005;28;20016;-71
2021/09/11 04:25:11;;;;;;;10.93;1.67;;;15.70;99.90;;;;;;2098548;28;20488;-72
2021/09/11 04:26:12;;;;;;;6.63;1.35;;;15.70;99.90;;;;;;2096626;28;20038;-69
2021/09/11 04:27:13;;;;;;;8.77;1.75;;;15.70;99.90;;;;;;2092697;28;20025;-74
2021/09/11 04:28:13;;;;;;;9.95;1.60;;;15.70;99.90;;;;;;2090580;28;20040;-71
2021/09/11 04:29:14;;;;;;;10.05;2.25;;;15.60;99.90;;;;;;2098193;28;20407;-70
2021/09/11 04:30:15;;;;;;;7.55;1.60;;;15.60;99.90;;;;;;2095808;28;20017;-72
2021/09/11 04:31:15;;;;;;;8.15;1.55;;;15.60;99.90;;;;;;2090785;28;20079;-71
2021/09/11 04:32:16;;;;;;;14.50;1.85;;;15.60;99.90;;;;;;2093813;28;20042;-71
2021/09/11 04:33:17;;;;;;;11.70;2.05;;;15.60;99.90;;;;;;2096298;28;20021;-73
2021/09/11 04:34:17;;;;;;;14.45;1.98;;;15.50;99.90;;;;;;2097714;28;20017;-70
2021/09/11 04:35:18;;;;;;;11.40;2.35;;;15.50;99.90;;;;;;2098001;28;20032;-72
2021/09/11 04:36:19;;;;;;;12.63;2.10;;;15.50;99.90;;;;;;2098226;28;20028;-72
2021/09/11 04:37:19;;;;;;;9.90;1.63;;;15.50;99.90;;;;;;2098079;28;20029;-70
2021/09/11 04:38:20;;;;;;;11.70;1.85;;;15.50;99.90;;;;;;2106634;28;20483;-71
2021/09/11 04:39:21;;;;;;;7.25;1.65;;;15.50;99.90;;;;;;2090008;28;20025;-71
2021/09/11 04:40:21;;;;;;;10.63;2.00;;;15.50;99.90;;;;;;2088333;28;20023;-71
2021/09/11 04:41:22;;;;;;;13.90;2.33;;;15.60;99.90;;;;;;2089296;28;20021;-73
2021/09/11 04:42:23;;;;;;;6.97;1.50;;;15.60;99.90;;;;;;2093522;28;20044;-72
2021/09/11 04:43:23;;;;;;;16.48;2.13;;;15.60;99.90;;;;;;2089997;28;20032;-72
2021/09/11 04:44:27;;;;;;;11.90;1.70;;;15.70;99.90;;;;;;2096804;28;20519;-72
2021/09/11 04:45:28;;;;;;;13.15;2.80;;;15.70;99.90;;;;;;2098716;28;20025;-73
2021/09/11 04:46:28;;;;;;;8.00;1.85;;;15.80;99.90;;;;;;2099066;28;20024;-74
2021/09/11 04:47:29;;;;;;;13.40;2.22;;;15.80;99.90;;;;;;2101715;28;20035;-73
2021/09/11 04:48:30;;;;;;;13.77;2.42;;;15.80;99.90;;;;;;2093102;28;20017;-72
2021/09/11 04:49:31;;;;;;;8.57;1.98;;;15.90;99.90;;;;;;2097090;28;20728;-73
2021/09/11 04:50:31;;;;;;;6.47;1.75;;;15.90;99.90;;;;;;2096214;28;20024;-72
2021/09/11 04:51:32;;;;;;;8.27;1.95;;;15.90;99.90;;;;;;2094014;28;20033;-72
2021/09/11 04:52:33;;;;;;;9.95;1.85;;;15.90;99.90;;;;;;2095651;28;20111;-72
2021/09/11 04:53:34;;;;;;;11.68;2.83;;;15.90;99.90;;;;;;2092305;28;20025;-71
2021/09/11 04:54:34;;;;;;;17.50;3.15;;;15.90;99.90;;;;;;2106282;28;20028;-72
2021/09/11 04:55:35;;;;;;;11.05;2.28;;;15.90;99.90;;;;;;2097789;28;20025;-73
2021/09/11 04:56:36;;;;;;;14.82;3.13;;;15.90;99.90;;;;;;2098254;28;20075;-72
2021/09/11 04:57:37;;;;;;;10.45;2.30;;;15.80;99.90;;;;;;2097570;28;20107;-71
2021/09/11 04:58:37;;;;;;;6.57;1.80;;;15.80;99.90;;;;;;2095851;28;20108;-73
2021/09/11 04:59:38;;;;;;;10.63;2.05;;;15.70;99.90;;;;;;2097617;28;20103;-71
2021/09/11 05:00:39;;;;;;;11.27;1.95;;;15.80;99.90;;;;;;2095629;28;20571;-71
2021/09/11 05:01:39;;;;;;;13.70;2.33;;;15.70;99.90;;;;;;2098303;28;20134;-73
2021/09/11 05:02:41;;;;;;;19.33;2.17;;;15.70;99.90;;;;;;2098801;28;20476;-73
2021/09/11 05:03:42;;;;;;;9.98;2.03;;;15.70;99.90;;;;;;2095013;28;20071;-72
2021/09/11 05:04:42;;;;;;;16.40;2.20;;;15.60;99.90;;;;;;2094808;28;20150;-72
2021/09/11 05:05:43;;;;;;;10.63;2.15;;;15.60;99.90;;;;;;2099023;28;21016;-72
2021/09/11 05:06:44;;;;;;;11.70;2.47;;;15.60;99.90;;;;;;2089256;28;20017;-72
2021/09/11 05:07:44;;;;;;;10.90;2.55;;;15.50;99.90;;;;;;2097478;28;20414;-72
2021/09/11 05:08:45;;;;;;;12.85;2.00;;;15.50;99.90;;;;;;2097212;28;20139;-73
2021/09/11 05:09:46;;;;;;;8.60;2.00;;;15.50;99.90;;;;;;2098316;28;20073;-71
2021/09/11 05:10:46;;;;;;;8.75;2.05;;;15.40;99.90;;;;;;2097987;28;20027;-73
2021/09/11 05:11:47;;;;;;;11.77;2.30;;;15.40;99.90;;;;;;2098390;28;20028;-72
2021/09/11 05:12:49;;;;;;;13.18;1.80;;;15.40;99.90;;;;;;2098275;28;20024;-72
2021/09/11 05:13:50;;;;;;;10.20;2.13;;;15.40;99.90;;;;;;2098844;28;20025;-71
2021/09/11 05:14:50;;;;;;;8.32;1.98;;;15.30;99.90;;;;;;2098500;28;20024;-71